CheckWX is a tool to help pilots better visualize weather data.  It is not intended as a substitute for an official pre-flight weather briefing.

09:28:21 UTC

KEAR TAF
Kearney Regional Airport
Kearney, Nebraska, USA
KEAR 280537Z 2806/2906 02014KT 5SM -SHRA BR VCTS OVC004CB FM280800 03014KT 3SM -SHRA BR OVC003 FM281400 03017G28KT 2SM RA BR OVC003 FM290000 32027G42KT P6SM BKN015 FM290200 33015G21KT P6SM BKN120

Mar-28@
06:00 UTC

Mar-28 @ 06:00 UTC

Mar-28@
08:00 UTC

Mar-28 @ 08:00 UTC

TAF KEAR 280537Z 2806/2906 02014KT 5SM -SHRA BR VCTS OVC004CB

Expired

Wind
  • 020° at 14 KTS
Conditions
Light Showers, Rain, Mist, Area Thunderstorm
Cloud Levels
  • Overcast at 400' AGL

Mar-28@
08:00 UTC

Mar-28 @ 08:00 UTC

Mar-28@
14:00 UTC

Mar-28 @ 14:00 UTC

FM280800 03014KT 3SM -SHRA BR OVC003

From

From Standard forecast or significant change

Wind
  • 030° at 14 KTS
Conditions
Light Showers, Rain, Mist
Cloud Levels
  • Overcast at 300' AGL

Mar-28@
14:00 UTC

Mar-28 @ 14:00 UTC

Mar-29@
00:00 UTC

Mar-29 @ 00:00 UTC

FM281400 03017G28KT 2SM RA BR OVC003

From

From Standard forecast or significant change

Wind
  • 030° at 17 KTS
  • {Gusting to 28 KTS
Conditions
Rain, Mist
Cloud Levels
  • Overcast at 300' AGL

Mar-29@
00:00 UTC

Mar-29 @ 00:00 UTC

Mar-29@
02:00 UTC

Mar-29 @ 02:00 UTC

FM290000 32027G42KT P6SM BKN015

From

From Standard forecast or significant change

Wind
  • 320° at 27 KTS
  • {Gusting to 42 KTS
Cloud Levels
  • Broken at 1,500' AGL

Mar-29@
02:00 UTC

Mar-29 @ 02:00 UTC

Mar-29@
06:00 UTC

Mar-29 @ 06:00 UTC

FM290200 33015G21KT P6SM BKN120

From

From Standard forecast or significant change

Wind
  • 330° at 15 KTS
  • {Gusting to 21 KTS
Cloud Levels
  • Broken at 12,000' AGL